Time;durP1;ratioP1;P1;durP2;ratioP2;P2;SDS_P1;SDS_P2;PMS_P1;PMS_P2;Temp;Humidity;BMP_temperature;BMP_pressure;BME280_temperature;BME280_humidity;BME280_pressure;Samples;Min_cycle;Max_cycle;Signal;HPM_P1;HPM_P2
2022/11/21 00:00:58;;;;;;;13.47;6.00;;;8.50;99.90;;;;;;5051835;28;20472;-60
2022/11/21 00:03:26;;;;;;;19.20;7.50;;;8.50;99.90;;;;;;5046304;28;20479;-59
2022/11/21 00:05:53;;;;;;;16.77;6.97;;;8.50;99.90;;;;;;5046490;28;20490;-60
2022/11/21 00:08:21;;;;;;;13.03;4.93;;;8.50;99.90;;;;;;5047852;28;20716;-60
2022/11/21 00:10:48;;;;;;;19.70;7.17;;;8.50;99.90;;;;;;5068953;28;20490;-60
2022/11/21 00:13:16;;;;;;;19.20;7.83;;;8.50;99.90;;;;;;5052938;28;20873;-60
2022/11/21 00:15:43;;;;;;;32.87;10.93;;;9.50;99.90;;;;;;5047455;28;20482;-60
2022/11/21 00:18:11;;;;;;;14.30;5.50;;;8.50;99.90;;;;;;5051008;28;20919;-60
2022/11/21 00:20:40;;;;;;;21.00;7.80;;;8.60;99.90;;;;;;5065835;28;20475;-59
2022/11/21 00:23:07;;;;;;;14.47;5.97;;;8.50;99.90;;;;;;5053396;28;21226;-60
2022/11/21 00:25:33;;;;;;;17.90;6.67;;;8.50;99.90;;;;;;5053149;28;20484;-60
2022/11/21 00:28:00;;;;;;;17.03;6.70;;;8.50;99.90;;;;;;5061968;28;20481;-60
2022/11/21 00:30:27;;;;;;;24.33;6.10;;;8.50;99.90;;;;;;5051867;28;20495;-59
2022/11/21 00:32:54;;;;;;;20.03;7.30;;;8.40;99.90;;;;;;5045831;28;20830;-60
2022/11/21 00:35:20;;;;;;;24.80;9.77;;;8.40;99.90;;;;;;5056708;28;20694;-60
2022/11/21 00:37:49;;;;;;;20.03;7.57;;;8.30;99.90;;;;;;5050160;28;20476;-60
2022/11/21 00:40:16;;;;;;;20.80;6.57;;;8.30;99.90;;;;;;5048421;28;20841;-60
2022/11/21 00:42:43;;;;;;;22.13;8.00;;;8.30;99.90;;;;;;5051250;28;20472;-60
2022/11/21 00:45:10;;;;;;;14.87;5.40;;;8.20;99.90;;;;;;5045803;28;20484;-60
2022/11/21 00:47:37;;;;;;;24.57;8.03;;;8.30;99.90;;;;;;5040993;28;20490;-60
2022/11/21 00:50:04;;;;;;;15.47;6.50;;;8.30;99.90;;;;;;5043704;28;20484;-60
2022/11/21 00:52:31;;;;;;;23.97;9.37;;;8.20;99.90;;;;;;5034209;28;20732;-60
2022/11/21 00:54:59;;;;;;;17.90;5.97;;;8.40;99.90;;;;;;5035339;28;20480;-60
2022/11/21 00:57:26;;;;;;;11.60;5.07;;;8.30;99.90;;;;;;5035656;28;21212;-60
2022/11/21 00:59:52;;;;;;;19.57;6.30;;;8.30;99.90;;;;;;5029283;28;20491;-60
2022/11/21 01:02:19;;;;;;;16.67;4.20;;;8.30;99.90;;;;;;5046352;28;20471;-60
2022/11/21 01:04:46;;;;;;;24.67;8.80;;;8.30;99.90;;;;;;5046161;28;20480;-61
2022/11/21 01:07:13;;;;;;;11.33;4.43;;;8.30;99.90;;;;;;5038632;28;20476;-61
2022/11/21 01:09:40;;;;;;;35.27;10.20;;;8.30;99.90;;;;;;5038409;28;20484;-61
2022/11/21 01:12:09;;;;;;;17.10;5.47;;;8.20;99.90;;;;;;5041049;28;20953;-61
2022/11/21 01:14:35;;;;;;;20.47;7.57;;;8.20;99.90;;;;;;5040482;28;20484;-61
2022/11/21 01:17:02;;;;;;;15.27;4.97;;;8.00;99.90;;;;;;5037898;28;20483;-60
2022/11/21 01:19:29;;;;;;;13.13;5.23;;;8.00;99.90;;;;;;5037918;28;20476;-61
2022/11/21 01:21:55;;;;;;;13.30;5.57;;;8.00;99.90;;;;;;5037822;28;20480;-60
2022/11/21 01:24:22;;;;;;;15.87;4.47;;;8.00;99.90;;;;;;5040353;28;20873;-60
2022/11/21 01:26:49;;;;;;;13.80;5.30;;;7.90;99.90;;;;;;5034776;28;20615;-61
2022/11/21 01:29:17;;;;;;;11.43;4.83;;;7.90;99.90;;;;;;5034862;28;20479;-61
2022/11/21 01:31:44;;;;;;;17.93;6.97;;;7.90;99.90;;;;;;5037080;28;20487;-60
2022/11/21 01:34:13;;;;;;;13.17;4.80;;;8.00;99.90;;;;;;5037214;28;20491;-60
2022/11/21 01:36:40;;;;;;;26.03;8.30;;;7.90;99.90;;;;;;5030185;28;20554;-60
2022/11/21 01:39:07;;;;;;;27.47;5.23;;;7.90;99.90;;;;;;5036161;28;20511;-60
2022/11/21 01:41:36;;;;;;;19.77;8.07;;;8.00;99.90;;;;;;5040586;28;20653;-60
2022/11/21 01:44:06;;;;;;;8.10;3.93;;;8.00;99.90;;;;;;5035097;28;20488;-60
2022/11/21 01:46:34;;;;;;;17.23;5.90;;;8.00;99.90;;;;;;5020269;28;20472;-61
2022/11/21 01:49:04;;;;;;;12.07;5.23;;;8.00;99.90;;;;;;5032511;28;20951;-61
2022/11/21 01:51:33;;;;;;;10.47;4.77;;;8.00;99.90;;;;;;5034266;28;20479;-61
2022/11/21 01:54:05;;;;;;;12.77;4.17;;;8.00;99.90;;;;;;5034811;28;20969;-60
2022/11/21 01:56:37;;;;;;;12.50;5.10;;;7.90;99.90;;;;;;5034017;28;20484;-60
2022/11/21 01:59:06;;;;;;;19.00;4.27;;;7.90;99.90;;;;;;5032612;28;20479;-61
2022/11/21 02:01:35;;;;;;;12.73;5.33;;;7.90;99.90;;;;;;5035989;28;20487;-61
2022/11/21 02:04:04;;;;;;;9.20;4.20;;;7.90;99.90;;;;;;5035330;28;20496;-60
2022/11/21 02:06:33;;;;;;;17.07;4.67;;;7.90;99.90;;;;;;5029007;28;20499;-60
2022/11/21 02:09:01;;;;;;;16.67;5.70;;;7.90;99.90;;;;;;5042798;28;20494;-61
2022/11/21 02:11:33;;;;;;;9.67;4.03;;;7.90;99.90;;;;;;5036640;28;20488;-60
2022/11/21 02:14:00;;;;;;;15.40;5.97;;;7.90;99.90;;;;;;5032547;28;20679;-60
2022/11/21 02:16:27;;;;;;;17.63;6.43;;;7.90;99.90;;;;;;5036904;28;20461;-61
2022/11/21 02:18:56;;;;;;;25.03;5.60;;;7.80;99.90;;;;;;5037274;28;20484;-61
2022/11/21 02:21:31;;;;;;;12.03;4.87;;;7.70;99.90;;;;;;5031928;28;20538;-60
2022/11/21 02:24:04;;;;;;;14.97;5.77;;;7.70;99.90;;;;;;5044042;28;20484;-61
2022/11/21 02:26:33;;;;;;;15.83;5.50;;;7.50;99.90;;;;;;5035177;28;20494;-60
2022/11/21 02:29:00;;;;;;;8.67;3.50;;;7.50;99.90;;;;;;5038454;28;20480;-60
2022/11/21 02:31:26;;;;;;;12.37;4.97;;;7.50;99.90;;;;;;5038881;28;20483;-60
2022/11/21 02:33:53;;;;;;;13.20;4.30;;;7.50;99.90;;;;;;5036465;28;20483;-61
2022/11/21 02:36:47;;;;;;;12.50;5.03;;;7.40;99.90;;;;;;5036648;28;21172;-61
2022/11/21 02:39:19;;;;;;;13.93;5.43;;;7.50;99.90;;;;;;5001404;28;20916;-60
2022/11/21 02:41:58;;;;;;;24.77;8.03;;;7.50;99.90;;;;;;5033893;28;20484;-61
2022/11/21 02:44:32;;;;;;;16.17;4.00;;;7.50;99.90;;;;;;5036384;28;20691;-61
2022/11/21 02:46:58;;;;;;;14.20;4.93;;;7.50;99.90;;;;;;5034715;28;20698;-60
2022/11/21 02:49:34;;;;;;;19.90;5.67;;;7.50;99.90;;;;;;5025337;28;20487;-61
2022/11/21 02:52:01;;;;;;;13.10;5.30;;;7.60;99.90;;;;;;5037795;28;20490;-60
2022/11/21 02:54:28;;;;;;;14.33;5.13;;;7.60;99.90;;;;;;5050542;28;20502;-60
2022/11/21 02:56:56;;;;;;;21.80;4.90;;;7.50;99.90;;;;;;5030995;28;20479;-61
2022/11/21 02:59:23;;;;;;;15.50;5.90;;;7.60;99.90;;;;;;5041040;28;20472;-61
2022/11/21 03:01:49;;;;;;;21.53;8.13;;;7.60;99.90;;;;;;5034647;28;20484;-60
2022/11/21 03:04:16;;;;;;;16.73;5.10;;;7.60;99.90;;;;;;5032621;28;20860;-61
2022/11/21 03:06:43;;;;;;;25.57;9.10;;;7.70;99.90;;;;;;5025145;28;20498;-61
2022/11/21 03:09:11;;;;;;;11.97;4.73;;;7.70;99.90;;;;;;5046416;28;20476;-61
2022/11/21 03:11:38;;;;;;;29.40;8.73;;;7.60;99.90;;;;;;5027743;28;21019;-60
2022/11/21 03:14:06;;;;;;;17.43;5.93;;;7.70;99.90;;;;;;5043707;28;20478;-61
2022/11/21 03:16:32;;;;;;;15.13;5.87;;;7.70;99.90;;;;;;5043782;28;20480;-61
2022/11/21 03:18:59;;;;;;;18.43;4.27;;;7.70;99.90;;;;;;5038855;28;20480;-60
2022/11/21 03:21:26;;;;;;;14.90;5.60;;;7.70;99.90;;;;;;5035825;28;21005;-60
2022/11/21 03:23:53;;;;;;;21.47;7.33;;;7.70;99.90;;;;;;5037754;28;20852;-60
2022/11/21 03:26:20;;;;;;;11.30;3.53;;;7.60;99.90;;;;;;5036769;28;20491;-60
2022/11/21 03:28:46;;;;;;;15.33;5.27;;;7.60;99.90;;;;;;5036641;28;20633;-60
2022/11/21 03:31:15;;;;;;;11.93;3.50;;;7.60;99.90;;;;;;5031707;28;20484;-60
2022/11/21 03:33:41;;;;;;;29.77;8.97;;;7.60;99.90;;;;;;5040169;28;20507;-60
2022/11/21 03:36:08;;;;;;;19.90;6.87;;;7.60;99.90;;;;;;5037145;28;20484;-60
2022/11/21 03:38:35;;;;;;;23.57;8.23;;;7.60;99.90;;;;;;5033098;28;20491;-61
2022/11/21 03:41:04;;;;;;;14.37;3.87;;;7.60;99.90;;;;;;5038772;28;21090;-60
2022/11/21 03:43:31;;;;;;;15.80;6.50;;;7.70;99.90;;;;;;5042502;28;20504;-60
2022/11/21 03:45:58;;;;;;;23.40;6.13;;;7.70;99.90;;;;;;5034461;28;21193;-61
2022/11/21 03:48:26;;;;;;;17.10;5.83;;;7.70;99.90;;;;;;5049207;28;20480;-61
2022/11/21 03:50:52;;;;;;;12.63;5.27;;;7.70;99.90;;;;;;5036484;28;20495;-61
2022/11/21 03:53:19;;;;;;;9.70;4.50;;;7.70;99.90;;;;;;5041686;28;20718;-61
2022/11/21 03:55:46;;;;;;;20.27;6.90;;;7.70;99.90;;;;;;5040445;28;21152;-61
2022/11/21 03:58:13;;;;;;;12.73;5.43;;;7.70;99.90;;;;;;5042091;28;20819;-60
2022/11/21 04:00:40;;;;;;;23.03;9.00;;;7.70;99.90;;;;;;5037623;28;20475;-60
2022/11/21 04:03:06;;;;;;;16.97;4.40;;;7.70;99.90;;;;;;5046139;28;20482;-60
2022/11/21 04:05:34;;;;;;;18.90;7.40;;;7.80;99.90;;;;;;5038261;28;20509;-60
2022/11/21 04:08:01;;;;;;;14.03;5.90;;;7.80;99.90;;;;;;5035479;28;20502;-60
2022/11/21 04:10:28;;;;;;;28.27;7.97;;;7.90;99.90;;;;;;5050184;28;20472;-60
2022/11/21 04:12:54;;;;;;;22.40;6.80;;;7.90;99.90;;;;;;5023242;28;20595;-61
2022/11/21 04:15:21;;;;;;;25.53;9.10;;;8.00;99.90;;;;;;5030621;28;20496;-60
2022/11/21 04:17:48;;;;;;;31.80;7.30;;;8.00;99.90;;;;;;5041575;28;20831;-60
2022/11/21 04:20:15;;;;;;;17.30;6.83;;;8.00;99.90;;;;;;5038640;28;20479;-60
2022/11/21 04:22:44;;;;;;;25.80;8.93;;;8.10;99.90;;;;;;5036747;28;20762;-60
2022/11/21 04:25:12;;;;;;;19.23;5.57;;;8.40;99.90;;;;;;5043188;28;20476;-60
2022/11/21 04:27:39;;;;;;;36.73;11.67;;;8.20;99.90;;;;;;5033199;28;20479;-60
2022/11/21 04:30:06;;;;;;;17.80;6.33;;;8.20;99.90;;;;;;5043335;28;20896;-61
2022/11/21 04:32:33;;;;;;;26.90;7.27;;;8.20;99.90;;;;;;5039395;28;20499;-62
2022/11/21 04:35:00;;;;;;;24.00;8.00;;;8.20;99.90;;;;;;5040196;28;20990;-61
2022/11/21 04:37:26;;;;;;;18.53;5.27;;;8.20;99.90;;;;;;5035481;28;20487;-61
2022/11/21 04:39:55;;;;;;;21.53;5.50;;;8.20;99.90;;;;;;5048473;28;20537;-61
2022/11/21 04:42:21;;;;;;;15.73;5.97;;;8.20;99.90;;;;;;5047021;28;20541;-61
2022/11/21 04:44:48;;;;;;;23.77;7.70;;;8.20;99.90;;;;;;5040588;28;21004;-61
2022/11/21 04:47:15;;;;;;;26.13;6.60;;;8.20;99.90;;;;;;5038553;28;20813;-61
2022/11/21 04:49:41;;;;;;;37.57;12.03;;;8.10;99.90;;;;;;5039441;28;20484;-61
2022/11/21 04:52:08;;;;;;;14.40;4.83;;;8.10;99.90;;;;;;5037351;28;20941;-61
2022/11/21 04:54:35;;;;;;;24.70;7.40;;;8.10;99.90;;;;;;5038740;28;20490;-61
2022/11/21 04:57:03;;;;;;;25.63;7.27;;;8.10;99.90;;;;;;5040860;28;20734;-60
2022/11/21 04:59:30;;;;;;;27.57;8.50;;;8.10;99.90;;;;;;5039340;28;20886;-60
2022/11/21 05:01:56;;;;;;;28.70;6.43;;;8.00;99.90;;;;;;5036712;28;20757;-60
2022/11/21 05:04:23;;;;;;;22.60;7.03;;;7.90;99.90;;;;;;5028562;28;20518;-60
2022/11/21 05:06:50;;;;;;;35.47;9.10;;;8.00;99.90;;;;;;5049537;28;20510;-60
2022/11/21 05:09:17;;;;;;;32.40;8.83;;;7.80;99.90;;;;;;5039928;28;20484;-60
2022/11/21 05:14:37;;;;;;;37.50;9.57;;;7.60;99.90;;;;;;5001443;28;20491;-60
2022/11/21 05:17:04;;;;;;;18.20;4.93;;;7.60;99.90;;;;;;5037420;28;20837;-59
2022/11/21 05:19:31;;;;;;;22.33;7.50;;;;;;;;;;5040732;28;20485;-60
2022/11/21 05:21:58;;;;;;;20.77;7.43;;;7.60;99.90;;;;;;5039753;28;20507;-60
2022/11/21 05:24:24;;;;;;;17.23;6.43;;;7.70;99.90;;;;;;5037938;28;20485;-59
2022/11/21 05:26:51;;;;;;;30.23;8.40;;;;;;;;;;5050135;28;20491;-59
2022/11/21 05:29:18;;;;;;;22.70;6.97;;;7.50;99.90;;;;;;5044643;28;20472;-60
2022/11/21 05:31:46;;;;;;;38.93;10.10;;;7.60;99.90;;;;;;5034229;28;20499;-60
2022/11/21 05:34:13;;;;;;;21.07;6.30;;;7.60;99.90;;;;;;5040529;28;20519;-59
2022/11/21 05:36:40;;;;;;;37.90;10.30;;;7.60;99.90;;;;;;5036114;28;20495;-60
2022/11/21 05:39:07;;;;;;;21.57;6.57;;;7.50;99.90;;;;;;5037911;28;20486;-60
2022/11/21 05:41:34;;;;;;;26.60;6.50;;;;;;;;;;5038410;28;20487;-60
2022/11/21 05:43:59;;;;;;;20.70;6.60;;;7.50;99.90;;;;;;5036584;28;20487;-60
2022/11/21 05:46:26;;;;;;;15.23;5.43;;;7.60;99.90;;;;;;5032322;28;20480;-60
2022/11/21 05:48:55;;;;;;;22.60;7.30;;;;;;;;;;5035047;28;20717;-60
2022/11/21 05:51:22;;;;;;;25.50;6.50;;;7.50;99.90;;;;;;5028192;28;20483;-60
2022/11/21 05:53:49;;;;;;;27.60;8.63;;;7.50;99.90;;;;;;5036232;28;20500;-60
2022/11/21 05:56:17;;;;;;;21.73;5.53;;;7.40;99.90;;;;;;5035051;28;21010;-61
2022/11/21 05:58:44;;;;;;;35.97;9.37;;;7.40;99.90;;;;;;5037767;28;20480;-61
2022/11/21 06:01:13;;;;;;;20.83;7.27;;;7.40;99.90;;;;;;5017278;28;20507;-61
2022/11/21 06:03:41;;;;;;;41.10;9.00;;;7.40;99.90;;;;;;5036133;28;20725;-61
2022/11/21 06:06:10;;;;;;;15.90;5.03;;;7.30;99.90;;;;;;5036722;28;20487;-61
2022/11/21 06:08:39;;;;;;;29.83;8.67;;;7.30;99.90;;;;;;5018090;28;20987;-61
2022/11/21 06:11:07;;;;;;;23.20;6.97;;;7.20;99.90;;;;;;5048334;28;20496;-61
2022/11/21 06:13:35;;;;;;;36.20;9.80;;;7.20;99.90;;;;;;5041543;28;20508;-60
2022/11/21 06:16:04;;;;;;;19.47;5.90;;;7.10;99.90;;;;;;5031201;28;20483;-61
2022/11/21 06:18:32;;;;;;;22.80;5.97;;;7.10;99.90;;;;;;5034746;28;20475;-61
2022/11/21 06:21:03;;;;;;;33.30;7.47;;;7.10;99.90;;;;;;5042960;28;20492;-61
2022/11/21 06:23:31;;;;;;;12.70;4.80;;;7.10;99.90;;;;;;5034219;28;20476;-61
2022/11/21 06:25:59;;;;;;;22.13;5.27;;;7.10;99.90;;;;;;5031948;28;20476;-61
2022/11/21 06:28:26;;;;;;;17.13;5.20;;;7.10;99.90;;;;;;5038947;28;20488;-61
2022/11/21 06:30:53;;;;;;;25.47;6.70;;;7.10;99.90;;;;;;5025219;28;20488;-61
2022/11/21 06:33:20;;;;;;;30.47;5.77;;;7.10;99.90;;;;;;5043344;28;20475;-61
2022/11/21 06:35:47;;;;;;;39.57;9.07;;;7.10;99.90;;;;;;5035494;28;20491;-61
2022/11/21 06:38:17;;;;;;;16.27;5.97;;;7.20;99.90;;;;;;5034574;28;20484;-59
2022/11/21 06:40:45;;;;;;;39.50;10.90;;;7.10;99.90;;;;;;5034888;28;20481;-61
2022/11/21 06:43:12;;;;;;;13.80;5.40;;;7.10;99.90;;;;;;5033866;28;20977;-61
2022/11/21 06:45:38;;;;;;;32.27;10.50;;;7.10;99.90;;;;;;5026001;28;20485;-60
2022/11/21 06:48:06;;;;;;;13.30;5.10;;;7.10;99.90;;;;;;5030827;28;20499;-62
2022/11/21 06:50:33;;;;;;;14.63;6.03;;;7.10;99.90;;;;;;5028094;28;20495;-60
2022/11/21 06:53:00;;;;;;;22.57;7.03;;;7.10;99.90;;;;;;5026268;28;20488;-61
2022/11/21 06:55:28;;;;;;;31.23;8.43;;;7.20;99.90;;;;;;5031822;28;20610;-60
2022/11/21 06:57:58;;;;;;;22.03;5.53;;;7.20;99.90;;;;;;5027425;28;20476;-60
2022/11/21 07:00:26;;;;;;;36.47;5.93;;;7.30;99.90;;;;;;5033768;28;20970;-60
2022/11/21 07:02:53;;;;;;;19.27;5.77;;;7.40;99.90;;;;;;5030471;28;20505;-60
2022/11/21 07:05:20;;;;;;;31.60;8.30;;;7.40;99.90;;;;;;5035898;28;20480;-61
2022/11/21 07:07:47;;;;;;;30.83;7.30;;;7.50;99.90;;;;;;5032117;28;20602;-60
2022/11/21 07:10:14;;;;;;;14.57;5.27;;;7.60;99.90;;;;;;5035446;28;20488;-61
2022/11/21 07:15:26;;;;;;;40.10;9.10;;;7.60;99.90;;;;;;5029600;28;20556;-61
2022/11/21 07:17:53;;;;;;;33.33;8.10;;;7.70;99.90;;;;;;5021974;28;20473;-60
2022/11/21 07:20:21;;;;;;;24.87;6.50;;;7.80;99.90;;;;;;5048123;28;20468;-61
2022/11/21 07:22:47;;;;;;;46.97;12.03;;;7.40;99.90;;;;;;5040547;28;21007;-61
2022/11/21 07:25:14;;;;;;;28.57;7.83;;;7.80;99.90;;;;;;5036377;28;20492;-61
2022/11/21 07:27:41;;;;;;;58.47;13.40;;;7.90;99.90;;;;;;5033073;28;20483;-61
2022/11/21 07:30:09;;;;;;;27.90;6.60;;;7.90;99.90;;;;;;5035212;28;20897;-61
2022/11/21 07:32:37;;;;;;;36.67;9.13;;;7.10;99.90;;;;;;5034231;28;21020;-61
2022/11/21 07:35:04;;;;;;;41.30;6.63;;;8.00;99.90;;;;;;5030778;28;20485;-62
2022/11/21 07:37:31;;;;;;;35.03;7.90;;;8.00;99.90;;;;;;5032708;28;20495;-61
2022/11/21 07:39:58;;;;;;;18.40;4.87;;;8.00;99.90;;;;;;5035060;28;20485;-60
2022/11/21 07:42:24;;;;;;;33.20;7.17;;;7.90;99.90;;;;;;5034778;28;20479;-61
2022/11/21 07:44:51;;;;;;;25.83;6.90;;;8.00;99.90;;;;;;5036266;28;20479;-61
2022/11/21 07:47:18;;;;;;;26.50;7.30;;;6.70;99.90;;;;;;5025370;28;20468;-61
2022/11/21 07:49:46;;;;;;;32.20;9.03;;;8.00;99.90;;;;;;5034199;28;20480;-61
2022/11/21 07:52:13;;;;;;;20.90;6.33;;;8.10;99.90;;;;;;5032214;28;20484;-60
2022/11/21 07:54:39;;;;;;;37.83;9.97;;;8.00;99.90;;;;;;5032126;28;20491;-60
2022/11/21 07:57:06;;;;;;;27.83;7.83;;;8.00;99.90;;;;;;5027920;28;20955;-60
2022/11/21 07:59:33;;;;;;;31.87;8.97;;;8.00;99.90;;;;;;5030775;28;20480;-60
2022/11/21 08:01:59;;;;;;;21.43;7.60;;;7.90;99.90;;;;;;5034719;28;20483;-61
2022/11/21 08:04:26;;;;;;;28.00;7.80;;;8.00;99.90;;;;;;5030918;28;20642;-60
2022/11/21 08:06:54;;;;;;;23.30;6.80;;;8.00;99.90;;;;;;5029041;28;20495;-61
2022/11/21 08:09:21;;;;;;;23.40;7.07;;;8.10;99.90;;;;;;5026094;28;20471;-61
2022/11/21 08:11:48;;;;;;;43.03;10.57;;;8.10;99.90;;;;;;5033614;28;20495;-60
2022/11/21 08:14:14;;;;;;;39.93;9.37;;;8.20;99.90;;;;;;5031222;28;20512;-60
2022/11/21 08:16:41;;;;;;;58.30;13.63;;;8.20;99.90;;;;;;5020752;28;20487;-60
2022/11/21 08:19:08;;;;;;;19.53;7.03;;;8.20;99.90;;;;;;5034300;28;20516;-60
2022/11/21 08:21:34;;;;;;;38.77;11.00;;;8.30;99.90;;;;;;5046409;28;20480;-60
2022/11/21 08:24:03;;;;;;;25.57;7.30;;;8.90;99.90;;;;;;5035032;28;20476;-60
2022/11/21 08:26:30;;;;;;;27.50;9.13;;;9.70;99.90;;;;;;5029894;28;20484;-60
2022/11/21 08:28:56;;;;;;;20.90;8.37;;;9.90;99.90;;;;;;5038590;28;20483;-61
2022/11/21 08:31:23;;;;;;;25.93;7.80;;;13.40;99.90;;;;;;5045489;28;20992;-61
2022/11/21 08:33:50;;;;;;;32.63;9.33;;;9.60;99.90;;;;;;5022851;28;20480;-61
2022/11/21 08:36:16;;;;;;;26.83;8.53;;;9.40;99.90;;;;;;5025847;28;20854;-61
2022/11/21 08:38:43;;;;;;;51.00;12.80;;;9.10;99.90;;;;;;5032522;28;20475;-60
2022/11/21 08:43:57;;;;;;;20.93;7.03;;;8.90;99.90;;;;;;5027766;28;20825;-61
2022/11/21 08:46:26;;;;;;;29.93;8.60;;;8.80;99.90;;;;;;5039978;28;20471;-61
2022/11/21 08:48:53;;;;;;;29.07;9.67;;;8.70;99.90;;;;;;5037479;28;20499;-61
2022/11/21 08:51:19;;;;;;;28.37;10.83;;;8.60;99.90;;;;;;5031597;28;21016;-61
2022/11/21 08:53:46;;;;;;;53.27;12.20;;;8.50;99.90;;;;;;5037543;28;20912;-61
2022/11/21 08:56:14;;;;;;;37.80;9.00;;;8.60;99.90;;;;;;5035315;28;20838;-60
2022/11/21 08:58:41;;;;;;;67.53;16.13;;;8.70;99.90;;;;;;5029778;28;20480;-60
2022/11/21 09:01:08;;;;;;;22.27;8.07;;;8.90;99.90;;;;;;5043138;28;20495;-60
2022/11/21 09:03:35;;;;;;;41.20;12.20;;;8.90;99.90;;;;;;5034806;28;20486;-60
2022/11/21 09:06:01;;;;;;;35.93;9.07;;;9.00;99.90;;;;;;5041502;28;20567;-60
2022/11/21 09:08:29;;;;;;;40.03;10.03;;;9.10;99.90;;;;;;5032137;28;20896;-60
2022/11/21 09:10:56;;;;;;;39.90;9.70;;;9.20;99.90;;;;;;5038792;28;21226;-61
2022/11/21 09:13:24;;;;;;;30.57;9.20;;;9.20;99.90;;;;;;5027404;28;20488;-62
2022/11/21 09:18:35;;;;;;;43.00;13.10;;;9.00;99.90;;;;;;5027703;28;20483;-60
2022/11/21 09:21:02;;;;;;;42.07;10.30;;;8.90;99.90;;;;;;5038473;28;21291;-61
2022/11/21 09:23:29;;;;;;;43.53;10.90;;;8.90;99.90;;;;;;5026267;28;20687;-60
2022/11/21 09:25:56;;;;;;;34.03;8.93;;;8.90;99.90;;;;;;5030401;28;20843;-59
2022/11/21 09:28:24;;;;;;;43.13;11.10;;;8.70;99.90;;;;;;5033727;28;20513;-60
2022/11/21 09:30:50;;;;;;;39.90;11.10;;;8.80;99.90;;;;;;5034476;28;20955;-61
2022/11/21 09:33:17;;;;;;;26.70;8.90;;;8.70;99.90;;;;;;5036327;28;20857;-61
2022/11/21 09:35:44;;;;;;;56.83;13.90;;;8.70;99.90;;;;;;5035634;28;20484;-61
2022/11/21 09:38:12;;;;;;;22.40;8.63;;;8.60;99.90;;;;;;5032761;28;21004;-62
2022/11/21 09:40:44;;;;;;;43.30;10.93;;;8.50;99.90;;;;;;5036953;28;20479;-61
2022/11/21 09:43:47;;;;;;;13.10;7.20;;;8.60;99.90;;;;;;5038342;28;20507;-61
2022/11/21 09:46:17;;;;;;;36.83;9.93;;;8.70;99.90;;;;;;4988721;28;21106;-60
2022/11/21 09:48:51;;;;;;;41.30;11.30;;;8.80;99.90;;;;;;5027371;28;20480;-60
2022/11/21 09:51:20;;;;;;;39.37;10.00;;;8.90;99.90;;;;;;5036804;28;20475;-61
2022/11/21 09:53:54;;;;;;;58.30;12.87;;;9.00;99.90;;;;;;5031107;28;20487;-60
2022/11/21 09:56:23;;;;;;;29.80;8.93;;;9.10;99.90;;;;;;5033964;28;21366;-61
2022/11/21 09:59:05;;;;;;;31.10;9.67;;;9.10;99.90;;;;;;5035542;28;20573;-61
2022/11/21 10:01:32;;;;;;;37.93;10.57;;;9.20;99.90;;;;;;5021316;28;20490;-60
2022/11/21 10:04:02;;;;;;;22.03;7.53;;;9.20;99.90;;;;;;5030014;28;20489;-61
2022/11/21 10:06:32;;;;;;;26.47;7.73;;;9.20;99.90;;;;;;5023543;28;20543;-61
2022/11/21 10:09:10;;;;;;;30.10;9.80;;;9.30;99.90;;;;;;5025409;28;20491;-61
2022/11/21 10:14:40;;;;;;;24.30;8.93;;;9.20;99.90;;;;;;5036642;28;20464;-61
2022/11/21 10:17:18;;;;;;;32.50;8.40;;;9.40;99.90;;;;;;5036520;28;21009;-61
2022/11/21 10:20:14;;;;;;;34.60;10.70;;;9.40;99.90;;;;;;5036668;28;20484;-62
2022/11/21 10:22:58;;;;;;;45.73;11.70;;;9.40;99.90;;;;;;5035913;28;20488;-60
2022/11/21 10:25:30;;;;;;;33.63;10.03;;;9.40;99.90;;;;;;5038099;28;21003;-61
2022/11/21 10:28:02;;;;;;;31.43;10.20;;;9.50;99.90;;;;;;5028674;28;20479;-61
2022/11/21 10:30:30;;;;;;;29.77;7.90;;;9.50;99.90;;;;;;5037508;28;20475;-61
2022/11/21 10:33:02;;;;;;;20.03;7.27;;;9.60;99.90;;;;;;5032173;28;20464;-60
2022/11/21 10:35:36;;;;;;;28.60;10.97;;;9.60;99.90;;;;;;5029521;28;20977;-60
2022/11/21 10:38:13;;;;;;;21.63;7.90;;;12.00;99.90;;;;;;5038462;28;20472;-60
2022/11/21 10:40:44;;;;;;;55.20;14.27;;;9.70;99.90;;;;;;5031580;28;20472;-61
2022/11/21 10:46:07;;;;;;;24.97;6.73;;;10.00;99.90;;;;;;5025165;28;20484;-61
2022/11/21 10:48:34;;;;;;;36.17;10.30;;;9.90;99.90;;;;;;5036092;28;21086;-61
2022/11/21 10:51:17;;;;;;;44.73;9.20;;;9.80;99.90;;;;;;5028077;28;20500;-61
2022/11/21 10:56:29;;;;;;;20.07;7.43;;;9.90;99.90;;;;;;5032443;28;20474;-60
2022/11/21 10:58:58;;;;;;;24.93;7.37;;;9.90;99.90;;;;;;5035082;28;20481;-60
2022/11/21 11:01:28;;;;;;;32.87;9.03;;;9.80;99.90;;;;;;5035525;28;20522;-60
2022/11/21 11:04:06;;;;;;;33.57;10.40;;;9.90;99.90;;;;;;5035990;28;20603;-60
2022/11/21 11:06:33;;;;;;;25.20;7.27;;;10.00;99.90;;;;;;5024397;28;20491;-61
2022/11/21 11:09:00;;;;;;;13.07;5.50;;;10.10;99.90;;;;;;5039051;28;20487;-61
2022/11/21 11:11:27;;;;;;;19.07;5.60;;;10.30;99.90;;;;;;5030614;28;21066;-61
2022/11/21 11:13:59;;;;;;;24.63;9.00;;;10.50;99.90;;;;;;5045164;28;20491;-61
2022/11/21 11:16:29;;;;;;;17.30;7.50;;;10.40;99.90;;;;;;5027418;28;20495;-61
2022/11/21 11:18:59;;;;;;;25.77;6.17;;;10.40;99.90;;;;;;5037731;28;20999;-62
2022/11/21 11:21:28;;;;;;;30.07;8.27;;;10.50;99.90;;;;;;5036010;28;21099;-61
2022/11/21 11:24:06;;;;;;;39.93;8.00;;;10.40;99.90;;;;;;5031724;28;20479;-61
2022/11/21 11:26:33;;;;;;;31.60;7.57;;;10.30;99.90;;;;;;5023040;28;20475;-61
2022/11/21 11:29:09;;;;;;;20.70;6.23;;;10.20;99.90;;;;;;5034022;28;20491;-62
2022/11/21 11:31:49;;;;;;;38.27;10.47;;;10.00;99.90;;;;;;5024711;28;20479;-60
2022/11/21 11:34:17;;;;;;;19.63;7.20;;;10.10;99.90;;;;;;5034744;28;20525;-61
2022/11/21 11:36:55;;;;;;;46.27;9.97;;;10.00;99.90;;;;;;5027467;28;20867;-61
2022/11/21 11:39:35;;;;;;;29.60;7.47;;;9.90;99.90;;;;;;5026775;28;20492;-61
2022/11/21 11:48:11;;;;;;;35.87;6.20;;;10.10;99.90;;;;;;5021166;28;20992;-61
2022/11/21 11:50:43;;;;;;;52.10;11.77;;;10.10;99.90;;;;;;5032490;28;20977;-61
2022/11/21 11:53:15;;;;;;;24.13;8.53;;;10.30;99.90;;;;;;5043133;28;20491;-62
2022/11/21 11:55:45;;;;;;;36.60;9.30;;;10.20;99.90;;;;;;5020465;28;20685;-61
2022/11/21 11:58:19;;;;;;;33.77;8.17;;;10.20;99.90;;;;;;5031843;28;20488;-60
2022/11/21 12:00:50;;;;;;;55.00;11.00;;;10.20;99.90;;;;;;5025413;28;20490;-61
2022/11/21 12:03:21;;;;;;;29.77;6.90;;;10.20;99.90;;;;;;5023141;28;20487;-61
2022/11/21 12:05:58;;;;;;;48.97;10.23;;;10.10;99.90;;;;;;5029038;28;20468;-61
2022/11/21 12:08:33;;;;;;;24.07;5.70;;;10.10;99.90;;;;;;5025301;28;20486;-61
2022/11/21 12:13:56;;;;;;;30.57;7.57;;;10.00;99.90;;;;;;5035471;28;20506;-61
2022/11/21 12:16:25;;;;;;;45.33;8.70;;;9.90;99.90;;;;;;5034918;28;20499;-61
2022/11/21 12:18:59;;;;;;;31.87;7.17;;;9.90;99.90;;;;;;5044013;28;20704;-61
2022/11/21 12:21:27;;;;;;;38.07;8.43;;;10.00;99.90;;;;;;5038162;28;20491;-61
2022/11/21 12:23:56;;;;;;;32.10;7.20;;;9.90;99.90;;;;;;5036248;28;20479;-61
2022/11/21 12:26:44;;;;;;;21.77;5.87;;;9.80;99.90;;;;;;5029878;28;21184;-61
2022/11/21 12:29:28;;;;;;;27.03;8.13;;;9.70;99.90;;;;;;5040312;28;20479;-61
2022/11/21 12:32:08;;;;;;;25.53;7.00;;;9.70;99.90;;;;;;5039981;28;20476;-61
2022/11/21 12:34:54;;;;;;;35.40;7.93;;;9.60;99.90;;;;;;5039562;28;20471;-62
2022/11/21 12:37:32;;;;;;;24.83;6.30;;;9.70;99.90;;;;;;5039132;28;20487;-62
2022/11/21 12:40:04;;;;;;;36.00;8.27;;;9.70;99.90;;;;;;5036399;28;20854;-61
2022/11/21 12:42:50;;;;;;;26.90;6.00;;;9.70;99.90;;;;;;5035284;28;20491;-62
2022/11/21 12:45:36;;;;;;;23.97;7.00;;;9.70;99.90;;;;;;5030337;28;20483;-62
2022/11/21 12:54:40;;;;;;;23.20;7.50;;;9.40;99.90;;;;;;5032647;28;20707;-62
2022/11/21 12:57:10;;;;;;;21.63;7.43;;;9.70;99.90;;;;;;5019219;28;20475;-62
2022/11/21 12:59:57;;;;;;;37.80;9.30;;;9.80;99.90;;;;;;5030541;28;20574;-62
2022/11/21 13:02:38;;;;;;;32.40;7.97;;;9.80;99.90;;;;;;5033083;28;20483;-63
2022/11/21 13:05:09;;;;;;;29.30;8.47;;;9.80;99.90;;;;;;5027561;28;20502;-63
2022/11/21 13:07:38;;;;;;;32.07;8.80;;;9.80;99.90;;;;;;5025233;28;20484;-61
2022/11/21 13:10:11;;;;;;;27.53;7.20;;;9.80;99.90;;;;;;5036874;28;20492;-61
2022/11/21 13:12:43;;;;;;;43.67;11.37;;;9.80;99.90;;;;;;5034452;28;21021;-61
2022/11/21 13:15:20;;;;;;;20.23;6.73;;;9.80;99.90;;;;;;5035160;28;20669;-61
2022/11/21 13:17:52;;;;;;;41.30;10.67;;;9.90;99.90;;;;;;5029114;28;20488;-61
2022/11/21 13:20:26;;;;;;;25.17;7.20;;;9.80;99.90;;;;;;5030382;28;20476;-61
2022/11/21 13:23:05;;;;;;;44.43;8.33;;;9.90;99.90;;;;;;5029546;28;20579;-61
2022/11/21 13:25:47;;;;;;;23.77;8.47;;;9.80;99.90;;;;;;5026768;28;20488;-61
2022/11/21 13:28:32;;;;;;;31.87;7.97;;;9.80;99.90;;;;;;5026399;28;20492;-62
2022/11/21 13:31:01;;;;;;;17.63;5.10;;;9.80;99.90;;;;;;5017500;28;20480;-61